Time;durP1;ratioP1;P1;durP2;ratioP2;P2;SDS_P1;SDS_P2;PMS_P1;PMS_P2;Temp;Humidity;BMP_temperature;BMP_pressure;BME280_temperature;BME280_humidity;BME280_pressure;Samples;Min_cycle;Max_cycle;Signal;HPM_P1;HPM_P2
2021/06/07 00:00:13;;;;;;;21.63;19.73;;;16.70;59.70;;;;;;5069372;28;20469;-70
2021/06/07 00:02:39;;;;;;;22.30;20.00;;;16.70;60.00;;;;;;5070928;28;20260;-70
2021/06/07 00:05:05;;;;;;;20.57;19.00;;;16.70;59.80;;;;;;5070874;28;20523;-70
2021/06/07 00:07:31;;;;;;;21.60;19.57;;;16.70;59.30;;;;;;5071637;28;20264;-71
2021/06/07 00:09:56;;;;;;;20.80;19.07;;;16.70;59.70;;;;;;5069241;28;20952;-70
2021/06/07 00:12:22;;;;;;;21.07;19.23;;;16.70;59.50;;;;;;5070802;28;20213;-71
2021/06/07 00:14:47;;;;;;;22.67;20.60;;;16.80;59.10;;;;;;5070782;28;20198;-70
2021/06/07 00:17:13;;;;;;;23.50;20.27;;;16.70;58.80;;;;;;5070893;28;20174;-70
2021/06/07 00:19:40;;;;;;;20.63;18.60;;;16.70;59.30;;;;;;5070672;28;20201;-70
2021/06/07 00:22:07;;;;;;;21.20;19.50;;;16.70;59.40;;;;;;5070845;28;20193;-71
2021/06/07 00:24:33;;;;;;;35.30;19.93;;;16.70;58.10;;;;;;5070487;28;20446;-71
2021/06/07 00:26:59;;;;;;;21.70;19.90;;;16.70;58.50;;;;;;5070987;28;20417;-70
2021/06/07 00:29:24;;;;;;;21.47;19.47;;;16.60;59.00;;;;;;5070906;28;20942;-71
2021/06/07 00:31:50;;;;;;;19.30;17.80;;;16.60;59.40;;;;;;5070902;28;20210;-72
2021/06/07 00:34:16;;;;;;;22.50;20.47;;;16.70;59.20;;;;;;5070846;28;20229;-70
2021/06/07 00:36:42;;;;;;;22.73;20.50;;;16.60;59.00;;;;;;5070723;28;20186;-70
2021/06/07 00:39:12;;;;;;;24.80;22.30;;;16.60;58.70;;;;;;5070388;28;20185;-70
2021/06/07 00:41:38;;;;;;;21.80;19.90;;;16.60;58.50;;;;;;5070702;28;20885;-70
2021/06/07 00:44:09;;;;;;;25.27;22.70;;;16.60;59.20;;;;;;5070574;28;20589;-70
2021/06/07 00:46:35;;;;;;;23.77;21.27;;;16.50;58.80;;;;;;5070785;28;20884;-70
2021/06/07 00:49:01;;;;;;;21.60;19.70;;;16.40;59.70;;;;;;5070061;28;20420;-70
2021/06/07 00:51:27;;;;;;;25.70;23.30;;;16.50;60.30;;;;;;5070413;28;20834;-70
2021/06/07 00:53:53;;;;;;;26.90;21.20;;;16.50;60.10;;;;;;5070650;28;20560;-71
2021/06/07 00:56:18;;;;;;;24.83;22.60;;;16.40;59.90;;;;;;5070861;28;20654;-73
2021/06/07 00:58:47;;;;;;;23.73;21.70;;;16.30;60.50;;;;;;5070226;28;20243;-71
2021/06/07 01:01:15;;;;;;;25.57;22.70;;;16.30;61.60;;;;;;5070414;28;20247;-70
2021/06/07 01:03:42;;;;;;;28.60;26.10;;;16.30;61.50;;;;;;5070633;28;20427;-71
2021/06/07 01:06:08;;;;;;;25.80;23.40;;;16.30;61.40;;;;;;5070236;28;20408;-69
2021/06/07 01:08:35;;;;;;;25.50;22.87;;;16.30;62.00;;;;;;5073665;28;20455;-70
2021/06/07 01:11:00;;;;;;;24.70;22.67;;;16.30;62.00;;;;;;5073528;28;20800;-71
2021/06/07 01:13:26;;;;;;;25.00;22.70;;;16.30;62.00;;;;;;5073711;28;20430;-70
2021/06/07 01:15:54;;;;;;;26.03;23.97;;;16.30;62.00;;;;;;5073744;28;20197;-70
2021/06/07 01:18:21;;;;;;;27.10;24.60;;;16.30;62.00;;;;;;5073687;28;20457;-70
2021/06/07 01:20:48;;;;;;;25.13;22.70;;;16.30;61.20;;;;;;5073330;28;20440;-70
2021/06/07 01:23:14;;;;;;;26.20;23.77;;;16.30;61.80;;;;;;5073767;28;20480;-70
2021/06/07 01:25:41;;;;;;;21.80;19.57;;;16.30;61.70;;;;;;5073612;28;20428;-70
2021/06/07 01:28:09;;;;;;;25.43;23.17;;;16.30;62.00;;;;;;5073511;28;20512;-71
2021/06/07 01:30:39;;;;;;;32.40;25.50;;;16.30;61.90;;;;;;5073383;28;20416;-70
2021/06/07 01:33:07;;;;;;;25.00;22.80;;;16.40;61.30;;;;;;5073590;28;20411;-70
2021/06/07 01:35:33;;;;;;;24.87;22.67;;;16.40;61.20;;;;;;5073369;28;20424;-70
2021/06/07 01:38:00;;;;;;;24.03;22.03;;;16.40;61.30;;;;;;5073449;28;20515;-70
2021/06/07 01:40:29;;;;;;;24.13;21.23;;;16.40;60.70;;;;;;5072081;28;20586;-70
2021/06/07 01:42:56;;;;;;;24.33;22.33;;;16.40;60.30;;;;;;5073417;28;20424;-70
2021/06/07 01:45:24;;;;;;;28.10;25.23;;;16.50;60.30;;;;;;5073149;28;20519;-71
2021/06/07 01:47:52;;;;;;;24.63;22.23;;;16.40;60.20;;;;;;5073230;28;20772;-71
2021/06/07 01:50:18;;;;;;;27.93;25.50;;;16.40;60.00;;;;;;5071875;28;21043;-69
2021/06/07 01:52:46;;;;;;;26.40;23.83;;;16.30;60.20;;;;;;5073072;28;20840;-70
2021/06/07 01:55:23;;;;;;;24.57;22.33;;;16.30;60.60;;;;;;5073002;28;20455;-71
2021/06/07 01:57:51;;;;;;;26.70;24.20;;;16.30;60.60;;;;;;5073098;28;20412;-70
2021/06/07 02:00:28;;;;;;;28.70;25.97;;;16.30;60.70;;;;;;5072858;28;20413;-70
2021/06/07 02:02:54;;;;;;;29.30;26.90;;;16.30;60.30;;;;;;5072819;28;20788;-69
2021/06/07 02:05:23;;;;;;;26.50;24.00;;;16.20;60.60;;;;;;5073027;28;20443;-71
2021/06/07 02:07:54;;;;;;;25.23;23.13;;;16.20;61.30;;;;;;5072869;28;20182;-71
2021/06/07 02:10:22;;;;;;;29.27;26.33;;;16.20;61.40;;;;;;5072739;28;20423;-69
2021/06/07 02:12:48;;;;;;;30.17;27.47;;;16.30;61.00;;;;;;5072935;28;20436;-70
2021/06/07 02:15:14;;;;;;;27.27;24.97;;;16.20;60.90;;;;;;5072706;28;20455;-69
2021/06/07 02:17:41;;;;;;;26.20;23.63;;;16.20;61.20;;;;;;5072680;28;20174;-72
2021/06/07 02:20:10;;;;;;;30.23;23.20;;;16.20;60.40;;;;;;5071013;28;20922;-69
2021/06/07 02:22:37;;;;;;;25.90;23.73;;;16.20;60.90;;;;;;5071274;28;20483;-68
2021/06/07 02:25:05;;;;;;;27.50;24.63;;;16.20;61.30;;;;;;5072463;28;20424;-69
2021/06/07 02:27:32;;;;;;;26.70;24.30;;;16.20;61.40;;;;;;5072482;28;20411;-69
2021/06/07 02:29:59;;;;;;;29.77;25.90;;;16.20;61.60;;;;;;5070859;28;20412;-70
2021/06/07 02:32:24;;;;;;;29.13;26.13;;;16.20;61.60;;;;;;5072583;28;20498;-69
2021/06/07 02:34:50;;;;;;;28.67;26.40;;;16.20;61.80;;;;;;5072389;28;20435;-70
2021/06/07 02:37:17;;;;;;;29.97;27.10;;;16.20;61.00;;;;;;5072292;28;20182;-68
2021/06/07 02:39:43;;;;;;;30.67;22.40;;;16.20;61.30;;;;;;5072051;28;20557;-70
2021/06/07 02:42:10;;;;;;;28.73;25.90;;;16.10;61.80;;;;;;5072169;28;20427;-69
2021/06/07 02:44:35;;;;;;;26.13;21.80;;;16.10;61.80;;;;;;5072249;28;20277;-68
2021/06/07 02:47:01;;;;;;;29.30;26.90;;;16.00;61.70;;;;;;5072154;28;20420;-68
2021/06/07 02:49:27;;;;;;;26.50;23.70;;;16.00;62.20;;;;;;5071657;28;20247;-68
2021/06/07 02:51:52;;;;;;;31.70;28.40;;;16.00;62.90;;;;;;5072116;28;21038;-69
2021/06/07 02:54:18;;;;;;;31.30;24.83;;;16.00;62.20;;;;;;5072272;28;20246;-68
2021/06/07 02:56:44;;;;;;;25.93;23.90;;;16.00;62.30;;;;;;5072215;28;20623;-68
2021/06/07 02:59:09;;;;;;;25.27;22.80;;;16.10;61.80;;;;;;5071733;28;20589;-69
2021/06/07 03:01:35;;;;;;;27.40;24.73;;;16.00;61.70;;;;;;5071727;28;20185;-69
2021/06/07 03:04:01;;;;;;;36.00;31.07;;;15.90;62.30;;;;;;5071749;28;20185;-69
2021/06/07 03:06:27;;;;;;;25.70;23.10;;;15.90;62.90;;;;;;5071681;28;20203;-69
2021/06/07 03:08:53;;;;;;;31.53;28.30;;;15.90;63.30;;;;;;5071426;28;20552;-70
2021/06/07 03:11:18;;;;;;;32.13;29.07;;;15.90;63.50;;;;;;5071485;28;20460;-70
2021/06/07 03:13:44;;;;;;;40.37;30.30;;;15.90;63.80;;;;;;5071556;28;20174;-70
2021/06/07 03:16:11;;;;;;;33.73;29.07;;;15.80;64.30;;;;;;5071835;28;20267;-70
2021/06/07 03:18:38;;;;;;;30.30;27.67;;;15.80;64.40;;;;;;5071566;28;20419;-70
2021/06/07 03:21:04;;;;;;;30.67;27.60;;;15.80;65.60;;;;;;5071369;28;20419;-70
2021/06/07 03:23:32;;;;;;;31.60;28.80;;;15.90;64.70;;;;;;5072031;28;20523;-70
2021/06/07 03:25:59;;;;;;;25.27;22.57;;;16.00;64.10;;;;;;5071621;28;20205;-70
2021/06/07 03:28:25;;;;;;;30.57;27.70;;;16.00;64.10;;;;;;5071498;28;20611;-69
2021/06/07 03:30:51;;;;;;;30.90;28.03;;;16.00;63.40;;;;;;5070270;28;20539;-70
2021/06/07 03:33:19;;;;;;;28.50;25.60;;;16.00;63.10;;;;;;5071311;28;20831;-69
2021/06/07 03:35:46;;;;;;;29.80;26.93;;;16.00;63.30;;;;;;5071140;28;20424;-68
2021/06/07 03:38:13;;;;;;;30.60;28.00;;;15.90;64.20;;;;;;5071203;28;20421;-69
2021/06/07 03:40:45;;;;;;;28.30;25.80;;;15.90;64.70;;;;;;5071168;28;20443;-69
2021/06/07 03:43:11;;;;;;;27.57;25.03;;;15.80;65.10;;;;;;5072113;28;20786;-69
2021/06/07 03:45:37;;;;;;;26.50;23.87;;;15.80;64.80;;;;;;5071040;28;20440;-69
2021/06/07 03:48:04;;;;;;;33.00;29.93;;;15.80;65.40;;;;;;5071294;28;20480;-69
2021/06/07 03:50:31;;;;;;;31.03;28.47;;;15.80;66.30;;;;;;5071391;28;20836;-69
2021/06/07 03:52:56;;;;;;;33.53;30.30;;;15.80;66.70;;;;;;5071433;28;20435;-69
2021/06/07 03:55:24;;;;;;;30.70;27.93;;;15.70;66.60;;;;;;5070949;28;20619;-69
2021/06/07 03:57:52;;;;;;;29.87;26.40;;;15.70;66.60;;;;;;5069854;28;20428;-68
2021/06/07 04:00:20;;;;;;;31.60;28.40;;;15.80;66.60;;;;;;5070718;28;20501;-69
2021/06/07 04:02:46;;;;;;;29.03;26.13;;;15.80;66.60;;;;;;5070987;28;20976;-69
2021/06/07 04:05:13;;;;;;;28.67;25.87;;;15.80;66.70;;;;;;5070943;28;20440;-68
2021/06/07 04:07:39;;;;;;;29.27;26.30;;;15.90;66.80;;;;;;5071049;28;20423;-69
2021/06/07 04:10:08;;;;;;;29.00;26.17;;;15.90;66.30;;;;;;5070827;28;20487;-69
2021/06/07 04:12:34;;;;;;;29.97;27.23;;;15.90;66.10;;;;;;5070949;28;20455;-69
2021/06/07 04:14:59;;;;;;;28.47;25.60;;;15.90;66.70;;;;;;5070631;28;20478;-69
2021/06/07 04:17:25;;;;;;;29.40;26.40;;;15.90;66.80;;;;;;5070800;28;20265;-69
2021/06/07 04:19:50;;;;;;;36.97;29.83;;;15.90;66.20;;;;;;5070549;28;20666;-69
2021/06/07 04:22:16;;;;;;;31.47;28.47;;;15.80;66.00;;;;;;5070699;28;20170;-69
2021/06/07 04:24:45;;;;;;;27.70;25.00;;;15.80;66.70;;;;;;5070994;28;20289;-69
2021/06/07 04:27:13;;;;;;;33.27;29.93;;;15.80;66.70;;;;;;5070842;28;20186;-68
2021/06/07 04:29:39;;;;;;;34.07;30.67;;;15.80;66.70;;;;;;5070856;28;20905;-69
2021/06/07 04:32:05;;;;;;;30.90;27.40;;;15.70;67.40;;;;;;5070885;28;20478;-69
2021/06/07 04:34:31;;;;;;;33.37;29.73;;;15.70;66.60;;;;;;5070228;28;20485;-69
2021/06/07 04:36:56;;;;;;;40.27;32.83;;;15.70;66.90;;;;;;5070625;28;20415;-69
2021/06/07 04:39:22;;;;;;;32.17;28.90;;;15.60;68.40;;;;;;5069005;28;20200;-69
2021/06/07 04:41:47;;;;;;;39.77;32.80;;;15.70;67.80;;;;;;5071157;28;20174;-69
2021/06/07 04:44:13;;;;;;;34.10;27.70;;;15.70;67.70;;;;;;5074408;28;20282;-70
2021/06/07 04:46:38;;;;;;;34.80;31.47;;;15.70;68.90;;;;;;5074765;28;20327;-70
2021/06/07 04:49:04;;;;;;;36.70;33.37;;;15.70;68.30;;;;;;5072634;28;20231;-70
2021/06/07 04:51:29;;;;;;;34.60;28.77;;;15.80;67.80;;;;;;5074341;28;20201;-70
2021/06/07 04:53:55;;;;;;;34.17;30.77;;;15.80;67.30;;;;;;5074347;28;20174;-70
2021/06/07 04:56:20;;;;;;;36.77;32.73;;;15.80;67.10;;;;;;5074195;28;20255;-70
2021/06/07 04:58:46;;;;;;;31.30;28.27;;;15.80;66.90;;;;;;5072911;28;20182;-72
2021/06/07 05:01:13;;;;;;;34.53;31.17;;;15.80;66.70;;;;;;5074232;28;20181;-70
2021/06/07 05:03:39;;;;;;;36.67;32.87;;;15.80;66.70;;;;;;5074362;28;20423;-70
2021/06/07 05:06:05;;;;;;;36.23;28.97;;;15.80;66.70;;;;;;5074211;28;20940;-70
2021/06/07 05:08:31;;;;;;;35.47;31.90;;;15.90;66.80;;;;;;5074606;28;20412;-71
2021/06/07 05:10:57;;;;;;;34.43;31.03;;;15.90;66.70;;;;;;5073938;28;20451;-70
2021/06/07 05:13:24;;;;;;;36.07;32.50;;;15.90;66.20;;;;;;5073984;28;20409;-70
2021/06/07 05:15:51;;;;;;;38.70;33.73;;;15.90;65.60;;;;;;5073883;28;20432;-70
2021/06/07 05:18:17;;;;;;;34.80;31.10;;;15.90;66.10;;;;;;5074303;28;20420;-70
2021/06/07 05:20:43;;;;;;;32.80;29.00;;;15.80;66.10;;;;;;5074318;28;20901;-70
2021/06/07 05:23:10;;;;;;;31.37;28.03;;;15.90;66.20;;;;;;5073794;28;20174;-70
2021/06/07 05:25:37;;;;;;;31.80;28.63;;;15.90;65.60;;;;;;5074020;28;20429;-69
2021/06/07 05:28:05;;;;;;;33.17;29.97;;;15.90;65.70;;;;;;5074059;28;20416;-70
2021/06/07 05:30:32;;;;;;;31.57;28.60;;;16.00;65.90;;;;;;5073506;28;20420;-70
2021/06/07 05:32:58;;;;;;;35.90;32.60;;;16.00;65.40;;;;;;5073895;28;20444;-70
2021/06/07 05:35:26;;;;;;;32.87;29.80;;;16.10;64.60;;;;;;5073514;28;20501;-70
2021/06/07 05:37:53;;;;;;;31.40;27.83;;;16.00;64.30;;;;;;5073577;28;20412;-70
2021/06/07 05:40:20;;;;;;;31.00;28.20;;;16.00;64.60;;;;;;5073633;28;20415;-70
2021/06/07 05:42:47;;;;;;;28.70;25.97;;;16.00;64.40;;;;;;5072247;28;20960;-69
2021/06/07 05:45:13;;;;;;;27.93;24.80;;;16.00;64.40;;;;;;5073321;28;20522;-71
2021/06/07 05:47:40;;;;;;;32.80;29.00;;;16.00;64.20;;;;;;5073379;28;20933;-70
2021/06/07 05:50:08;;;;;;;30.27;24.77;;;16.00;64.70;;;;;;5073239;28;20812;-70
2021/06/07 05:52:34;;;;;;;34.50;31.27;;;15.90;64.40;;;;;;5073291;28;20547;-70
2021/06/07 05:54:59;;;;;;;31.10;27.63;;;15.90;65.00;;;;;;5072238;28;20538;-70
2021/06/07 05:57:25;;;;;;;26.57;23.70;;;15.90;65.40;;;;;;5072169;28;20205;-70
2021/06/07 05:59:50;;;;;;;27.50;24.80;;;15.90;64.70;;;;;;5072769;28;20162;-70
2021/06/07 06:02:17;;;;;;;31.17;26.80;;;16.00;64.90;;;;;;5072821;28;20200;-69
2021/06/07 06:04:42;;;;;;;31.87;28.43;;;16.00;64.30;;;;;;5072789;28;20192;-70
2021/06/07 06:07:08;;;;;;;30.33;25.17;;;16.10;64.80;;;;;;5072983;28;20491;-70
2021/06/07 06:09:34;;;;;;;26.37;23.60;;;16.10;63.70;;;;;;5072798;28;20174;-70
2021/06/07 06:12:00;;;;;;;32.70;27.93;;;16.00;64.60;;;;;;5072758;28;20248;-70
2021/06/07 06:14:26;;;;;;;29.80;26.63;;;16.10;64.00;;;;;;5072758;28;20468;-70
2021/06/07 06:16:52;;;;;;;31.20;27.20;;;16.10;64.10;;;;;;5071435;28;21051;-70
2021/06/07 06:19:18;;;;;;;26.57;24.00;;;16.10;64.30;;;;;;5072382;28;20507;-70
2021/06/07 06:21:43;;;;;;;27.63;25.10;;;16.10;64.10;;;;;;5072817;28;20647;-70
2021/06/07 06:24:11;;;;;;;27.40;24.90;;;16.20;64.10;;;;;;5072591;28;20204;-70
2021/06/07 06:26:37;;;;;;;31.13;28.07;;;16.20;63.90;;;;;;5072595;28;20538;-70
2021/06/07 06:29:04;;;;;;;27.13;20.90;;;16.30;63.60;;;;;;5072280;28;20508;-70
2021/06/07 06:31:30;;;;;;;36.00;25.10;;;16.30;63.20;;;;;;5072662;28;20456;-70
2021/06/07 06:33:56;;;;;;;27.57;24.60;;;16.30;62.00;;;;;;5072329;28;20553;-71
2021/06/07 06:36:21;;;;;;;31.90;25.87;;;16.20;62.40;;;;;;5072515;28;20704;-70
2021/06/07 06:38:47;;;;;;;24.73;22.37;;;16.20;63.20;;;;;;5071987;28;20173;-70
2021/06/07 06:41:12;;;;;;;28.30;25.60;;;16.20;63.10;;;;;;5072521;28;20178;-70
2021/06/07 06:43:38;;;;;;;25.80;23.20;;;16.20;62.90;;;;;;5072787;28;20186;-72
2021/06/07 06:46:05;;;;;;;31.10;25.63;;;16.20;63.50;;;;;;5072231;28;20198;-69
2021/06/07 06:48:33;;;;;;;27.63;24.60;;;16.20;63.30;;;;;;5072448;28;20412;-69
2021/06/07 06:50:59;;;;;;;29.93;26.80;;;16.30;63.40;;;;;;5070509;28;20502;-69
2021/06/07 06:53:25;;;;;;;27.87;25.00;;;16.40;62.90;;;;;;5071692;28;20434;-69
2021/06/07 06:55:51;;;;;;;24.27;21.80;;;16.40;62.30;;;;;;5071422;28;20444;-69
2021/06/07 06:58:17;;;;;;;28.90;22.90;;;16.50;61.20;;;;;;5071524;28;20180;-70
2021/06/07 07:00:44;;;;;;;23.53;21.13;;;16.40;61.10;;;;;;5071478;28;20496;-69
2021/06/07 07:03:20;;;;;;;25.53;23.13;;;16.40;60.80;;;;;;5072011;28;20414;-70
2021/06/07 07:05:47;;;;;;;30.20;27.07;;;16.40;61.80;;;;;;5071458;28;20937;-69
2021/06/07 07:08:13;;;;;;;26.27;23.80;;;16.40;61.30;;;;;;5071508;28;20455;-69
2021/06/07 07:10:41;;;;;;;23.87;21.30;;;16.40;61.60;;;;;;5071632;28;20412;-70
2021/06/07 07:13:07;;;;;;;27.53;22.17;;;16.40;62.00;;;;;;5071181;28;20408;-70
2021/06/07 07:15:33;;;;;;;26.23;23.73;;;16.40;61.70;;;;;;5071143;28;20423;-70
2021/06/07 07:17:59;;;;;;;24.63;22.13;;;16.40;62.10;;;;;;5071212;28;20400;-71
2021/06/07 07:20:24;;;;;;;24.10;21.57;;;16.50;61.10;;;;;;5071013;28;20412;-69
2021/06/07 07:22:51;;;;;;;23.57;21.37;;;16.50;60.50;;;;;;5071358;28;20180;-69
2021/06/07 07:25:16;;;;;;;21.00;18.87;;;16.60;60.50;;;;;;5070976;28;20216;-69
2021/06/07 07:27:42;;;;;;;21.07;18.93;;;16.60;60.40;;;;;;5071152;28;20412;-68
2021/06/07 07:30:11;;;;;;;19.37;17.60;;;16.60;60.10;;;;;;5070889;28;20580;-69
2021/06/07 07:32:39;;;;;;;28.23;22.20;;;16.70;60.00;;;;;;5070812;28;20452;-69
2021/06/07 07:35:06;;;;;;;22.47;20.50;;;16.70;59.10;;;;;;5070856;28;20470;-69
2021/06/07 07:37:33;;;;;;;18.57;16.83;;;16.70;59.00;;;;;;5070894;28;20989;-68
2021/06/07 07:39:59;;;;;;;26.77;21.37;;;16.80;59.60;;;;;;5070656;28;20412;-70
2021/06/07 07:42:24;;;;;;;16.57;13.83;;;16.80;59.00;;;;;;5070975;28;20408;-69
2021/06/07 07:44:50;;;;;;;25.57;18.53;;;16.80;58.40;;;;;;5070886;28;20193;-69
2021/06/07 07:47:17;;;;;;;20.47;17.10;;;16.80;58.90;;;;;;5071018;28;20189;-68
2021/06/07 07:49:43;;;;;;;18.53;16.77;;;16.80;58.60;;;;;;5070718;28;20802;-69
2021/06/07 07:52:08;;;;;;;18.60;16.53;;;16.80;58.20;;;;;;5070742;28;20497;-69
2021/06/07 07:54:35;;;;;;;18.43;16.20;;;16.80;58.20;;;;;;5069481;28;20208;-69
2021/06/07 07:57:01;;;;;;;20.10;18.37;;;16.70;58.80;;;;;;5069805;28;20174;-69
2021/06/07 07:59:26;;;;;;;18.23;15.63;;;16.70;59.50;;;;;;5070511;28;20427;-69
2021/06/07 08:01:52;;;;;;;18.00;16.30;;;16.70;59.20;;;;;;5070678;28;20403;-69
2021/06/07 08:04:18;;;;;;;19.83;16.13;;;16.70;59.10;;;;;;5070436;28;20237;-69
2021/06/07 08:06:44;;;;;;;18.20;16.70;;;16.80;60.80;;;;;;5070645;28;20261;-69
2021/06/07 08:09:10;;;;;;;20.57;16.03;;;16.80;59.70;;;;;;5069267;28;20542;-69
2021/06/07 08:11:36;;;;;;;18.03;16.30;;;17.00;60.20;;;;;;5070809;28;20456;-69
2021/06/07 08:14:02;;;;;;;16.27;14.57;;;17.10;58.90;;;;;;5070776;28;20971;-69
2021/06/07 08:16:28;;;;;;;18.23;15.97;;;17.20;58.80;;;;;;5070737;28;20408;-71
2021/06/07 08:18:53;;;;;;;16.37;14.87;;;17.30;57.90;;;;;;5073152;28;20917;-70
2021/06/07 08:21:19;;;;;;;16.67;14.97;;;17.40;57.90;;;;;;5074678;28;20669;-70
2021/06/07 08:23:45;;;;;;;13.27;12.17;;;17.50;55.70;;;;;;5074431;28;20173;-70
2021/06/07 08:26:11;;;;;;;14.80;13.20;;;17.40;55.50;;;;;;5073149;28;20178;-70
2021/06/07 08:28:37;;;;;;;15.90;14.40;;;17.50;54.70;;;;;;5072973;28;20412;-71
2021/06/07 08:31:03;;;;;;;14.70;13.10;;;17.50;54.50;;;;;;5072803;28;20459;-70
2021/06/07 08:33:29;;;;;;;14.97;13.77;;;17.60;54.80;;;;;;5074287;28;20420;-70
2021/06/07 08:35:57;;;;;;;13.57;12.33;;;17.60;54.40;;;;;;5074611;28;20202;-70
2021/06/07 08:38:23;;;;;;;10.43;9.53;;;17.60;54.00;;;;;;5074208;28;20901;-70
2021/06/07 08:40:50;;;;;;;11.33;10.37;;;17.70;52.70;;;;;;5073961;28;20408;-71
2021/06/07 08:43:20;;;;;;;12.67;11.67;;;17.70;53.00;;;;;;5071824;28;20527;-71
2021/06/07 08:45:47;;;;;;;10.80;9.70;;;17.70;52.40;;;;;;5054659;28;20441;-71
2021/06/07 08:48:13;;;;;;;11.70;10.67;;;17.60;52.50;;;;;;5061199;28;20435;-72
2021/06/07 08:50:38;;;;;;;14.20;10.30;;;17.60;53.40;;;;;;5061362;28;20803;-73
2021/06/07 08:53:04;;;;;;;10.27;9.20;;;17.60;53.30;;;;;;5053629;28;20178;-73
2021/06/07 08:55:31;;;;;;;12.47;11.30;;;17.80;53.30;;;;;;5075642;22;20220;-74
2021/06/07 08:57:57;;;;;;;12.43;11.43;;;17.90;52.80;;;;;;5053083;28;20190;-74
2021/06/07 09:00:26;;;;;;;10.63;9.83;;;17.90;53.40;;;;;;5052872;28;20401;-77
2021/06/07 09:03:04;;;;;;;10.77;9.87;;;18.00;51.80;;;;;;5060327;28;20232;-74
2021/06/07 09:05:30;;;;;;;10.80;9.90;;;18.10;51.80;;;;;;5053329;28;20467;-74
2021/06/07 09:08:02;;;;;;;11.70;10.60;;;18.10;52.00;;;;;;5054246;28;20409;-70
2021/06/07 09:10:31;;;;;;;10.33;9.17;;;18.30;52.50;;;;;;5055946;28;20413;-71
2021/06/07 09:13:00;;;;;;;11.07;9.47;;;18.50;51.40;;;;;;5056513;28;20909;-70
2021/06/07 09:15:35;;;;;;;9.10;8.30;;;18.60;50.00;;;;;;5054473;28;20425;-71
2021/06/07 09:18:03;;;;;;;12.70;8.03;;;18.80;49.10;;;;;;5054052;28;20758;-70
2021/06/07 09:20:30;;;;;;;9.40;8.50;;;18.90;48.00;;;;;;5051533;28;20782;-70
2021/06/07 09:23:02;;;;;;;12.00;8.70;;;19.00;48.10;;;;;;5063304;28;21328;-74
2021/06/07 09:25:31;;;;;;;7.33;6.50;;;19.10;47.00;;;;;;5078352;28;20431;-72
2021/06/07 09:28:21;;;;;;;7.80;7.00;;;19.00;45.30;;;;;;5074460;28;20420;-72
2021/06/07 09:30:57;;;;;;;8.97;8.00;;;18.90;45.90;;;;;;5057535;28;20458;-70
2021/06/07 09:33:34;;;;;;;7.07;6.37;;;18.70;47.10;;;;;;5053893;28;20516;-71
2021/06/07 09:36:23;;;;;;;12.77;8.00;;;18.70;48.00;;;;;;5056371;28;20985;-71
2021/06/07 09:39:15;;;;;;;6.40;5.80;;;18.70;48.20;;;;;;5056561;28;20408;-76
2021/06/07 09:41:52;;;;;;;7.33;6.73;;;18.70;46.50;;;;;;5059384;28;20444;-71
2021/06/07 09:44:24;;;;;;;10.20;7.17;;;18.70;48.00;;;;;;5061260;28;20498;-71
2021/06/07 09:46:51;;;;;;;22.13;6.60;;;18.60;49.00;;;;;;5072227;28;20478;-71
2021/06/07 09:49:22;;;;;;;7.10;6.17;;;18.70;49.10;;;;;;5069629;28;20419;-71
2021/06/07 09:51:57;;;;;;;6.50;5.90;;;18.80;49.10;;;;;;5074537;28;20471;-71
2021/06/07 09:54:24;;;;;;;7.97;7.17;;;18.70;47.60;;;;;;5075345;28;20408;-71
2021/06/07 09:56:58;;;;;;;6.30;5.90;;;18.70;49.00;;;;;;5053850;28;20492;-71
2021/06/07 09:59:30;;;;;;;9.13;8.20;;;18.70;49.10;;;;;;5062779;28;20419;-71
2021/06/07 10:01:58;;;;;;;7.60;7.00;;;18.70;49.10;;;;;;5074734;28;20455;-71
2021/06/07 10:04:53;;;;;;;6.97;6.27;;;18.70;47.90;;;;;;5074640;28;20439;-71
2021/06/07 10:07:20;;;;;;;8.70;8.00;;;18.60;48.10;;;;;;5067837;28;20451;-72
2021/06/07 10:10:10;;;;;;;9.03;8.33;;;18.60;49.00;;;;;;5074520;28;20428;-71
2021/06/07 10:12:39;;;;;;;8.70;7.80;;;18.50;48.90;;;;;;5075711;28;20900;-71
2021/06/07 10:15:06;;;;;;;16.03;8.40;;;18.40;50.10;;;;;;5077316;28;20420;-71
2021/06/07 10:17:31;;;;;;;8.20;7.50;;;18.40;50.20;;;;;;5077976;28;20435;-72
2021/06/07 10:22:39;;;;;;;7.47;6.87;;;18.60;49.30;;;;;;5076155;28;20182;-72
2021/06/07 10:25:07;;;;;;;9.53;7.60;;;18.60;49.00;;;;;;5074117;28;20420;-72
2021/06/07 10:27:33;;;;;;;9.90;9.10;;;18.70;49.10;;;;;;5073848;28;20948;-72
2021/06/07 10:29:58;;;;;;;7.77;7.17;;;18.70;49.10;;;;;;5076025;28;20497;-71
2021/06/07 10:32:29;;;;;;;11.63;8.23;;;18.80;49.10;;;;;;5076722;28;20472;-71
2021/06/07 10:34:57;;;;;;;7.23;6.43;;;19.00;49.30;;;;;;5077558;28;20546;-71
2021/06/07 10:37:25;;;;;;;14.20;8.30;;;19.20;47.30;;;;;;5079876;28;20509;-71
2021/06/07 10:39:51;;;;;;;12.37;8.77;;;19.40;45.90;;;;;;5080270;28;20423;-72
2021/06/07 10:42:20;;;;;;;7.40;6.80;;;19.50;45.50;;;;;;5079750;28;20435;-72
2021/06/07 10:44:50;;;;;;;7.70;6.80;;;19.60;44.70;;;;;;5079592;28;20506;-72
2021/06/07 10:47:25;;;;;;;7.13;6.40;;;19.60;44.40;;;;;;5079061;28;20443;-72
2021/06/07 10:49:58;;;;;;;7.53;6.93;;;19.60;43.70;;;;;;5074457;28;20464;-72
2021/06/07 10:52:27;;;;;;;8.67;7.97;;;19.70;43.30;;;;;;5076680;28;20608;-72
2021/06/07 10:55:06;;;;;;;8.30;7.37;;;19.60;43.90;;;;;;5079990;28;20495;-72
2021/06/07 10:57:40;;;;;;;9.03;8.20;;;19.50;44.60;;;;;;5079400;28;20452;-72
2021/06/07 11:00:20;;;;;;;9.73;8.23;;;19.40;44.50;;;;;;5078427;28;20480;-72
2021/06/07 11:02:46;;;;;;;6.80;6.20;;;19.60;44.70;;;;;;5079313;28;20419;-72
2021/06/07 11:05:18;;;;;;;11.70;7.37;;;19.70;42.80;;;;;;5079094;28;20424;-72
2021/06/07 11:08:06;;;;;;;7.40;6.50;;;19.70;43.10;;;;;;5079266;28;20430;-72
2021/06/07 11:10:32;;;;;;;9.40;8.50;;;19.50;43.60;;;;;;5079562;28;20507;-72
2021/06/07 11:13:18;;;;;;;14.73;10.00;;;19.30;43.90;;;;;;5080416;28;20546;-72
2021/06/07 11:15:52;;;;;;;8.40;7.60;;;19.10;44.50;;;;;;5079807;28;20447;-72
2021/06/07 11:18:18;;;;;;;7.40;6.90;;;19.00;45.50;;;;;;5079192;28;20443;-72
2021/06/07 11:20:43;;;;;;;8.53;7.83;;;19.10;46.80;;;;;;5079368;28;20443;-72
2021/06/07 11:23:09;;;;;;;11.80;10.70;;;19.10;46.40;;;;;;5078139;28;20230;-72
2021/06/07 11:25:50;;;;;;;9.67;8.87;;;18.90;47.30;;;;;;5078361;28;20197;-72
2021/06/07 11:28:30;;;;;;;11.20;10.30;;;18.90;47.60;;;;;;5079580;28;20174;-72
2021/06/07 11:30:58;;;;;;;12.70;11.60;;;18.90;47.60;;;;;;5079115;28;20661;-72
2021/06/07 11:33:24;;;;;;;12.00;10.80;;;18.80;48.10;;;;;;5078727;28;20424;-72
2021/06/07 11:35:50;;;;;;;12.43;11.17;;;18.80;48.30;;;;;;5079101;28;20450;-72
2021/06/07 11:38:33;;;;;;;10.60;9.80;;;18.70;48.50;;;;;;5078964;28;20465;-71
2021/06/07 11:41:02;;;;;;;9.60;8.67;;;18.80;48.20;;;;;;5078564;28;20431;-72
2021/06/07 11:43:46;;;;;;;12.63;11.47;;;18.90;48.20;;;;;;5078561;28;20408;-72
2021/06/07 11:46:31;;;;;;;11.37;10.27;;;18.80;48.90;;;;;;5077308;28;20436;-71
2021/06/07 11:49:12;;;;;;;12.50;11.30;;;18.90;49.20;;;;;;5078415;28;20454;-72
2021/06/07 11:51:40;;;;;;;14.57;13.13;;;19.00;48.10;;;;;;5070201;28;20460;-72
2021/06/07 11:54:24;;;;;;;14.43;12.80;;;19.00;48.20;;;;;;5075301;28;20416;-72
2021/06/07 11:57:01;;;;;;;15.97;14.27;;;19.00;47.50;;;;;;5075064;28;20889;-72
2021/06/07 11:59:29;;;;;;;15.73;14.23;;;19.00;48.10;;;;;;5074714;28;20416;-73
2021/06/07 12:01:55;;;;;;;14.80;13.50;;;19.10;48.10;;;;;;5072904;28;20447;-73
2021/06/07 12:04:27;;;;;;;16.37;13.67;;;19.20;46.80;;;;;;5073235;28;20416;-72
2021/06/07 12:07:04;;;;;;;15.37;13.90;;;19.20;47.90;;;;;;5072143;28;20455;-72
2021/06/07 12:09:31;;;;;;;15.60;14.13;;;19.30;47.50;;;;;;5070912;28;20423;-73
2021/06/07 12:11:57;;;;;;;14.87;13.60;;;19.40;45.70;;;;;;5071732;28;20472;-72
2021/06/07 12:14:27;;;;;;;13.13;12.17;;;19.50;45.10;;;;;;5069524;28;20427;-71
2021/06/07 12:16:54;;;;;;;15.63;14.13;;;19.60;44.70;;;;;;5071330;28;20455;-72
2021/06/07 12:19:30;;;;;;;11.87;10.87;;;19.80;44.40;;;;;;5073027;28;20618;-72
2021/06/07 12:21:56;;;;;;;14.47;13.30;;;19.90;43.30;;;;;;5071052;28;20440;-72
2021/06/07 12:24:23;;;;;;;12.60;11.40;;;19.70;44.00;;;;;;5071696;28;20477;-72
2021/06/07 12:29:34;;;;;;;13.07;12.13;;;19.40;44.60;;;;;;5070252;28;20446;-73
2021/06/07 12:32:11;;;;;;;14.13;12.77;;;19.40;45.40;;;;;;5067428;28;20472;-73
2021/06/07 12:34:58;;;;;;;14.53;13.23;;;19.40;45.60;;;;;;5067968;28;20416;-73
2021/06/07 12:37:38;;;;;;;22.00;13.53;;;19.40;44.70;;;;;;5051665;28;20448;-72
2021/06/07 12:40:15;;;;;;;14.93;13.63;;;19.30;45.80;;;;;;5064344;28;20470;-73